Time;durP1;ratioP1;P1;durP2;ratioP2;P2;SDS_P1;SDS_P2;PMS_P1;PMS_P2;Temp;Humidity;BMP_temperature;BMP_pressure;BME280_temperature;BME280_humidity;BME280_pressure;Samples;Min_cycle;Max_cycle;Signal;HPM_P1;HPM_P2
2022/07/28 00:01:42;;;;;;;1999.90;999.90;;;18.90;94.60;;;;;;5016212;28;20156;-72
2022/07/28 00:04:07;;;;;;;1999.90;999.90;;;18.80;94.70;;;;;;5016572;28;20037;-73
2022/07/28 00:06:33;;;;;;;1999.90;999.90;;;18.70;94.60;;;;;;5016821;28;20048;-74
2022/07/28 00:08:59;;;;;;;1999.90;999.90;;;18.70;95.00;;;;;;5016706;28;20083;-74
2022/07/28 00:11:24;;;;;;;1999.90;999.90;;;18.70;94.90;;;;;;5016284;28;20092;-75
2022/07/28 00:13:50;;;;;;;1999.90;999.90;;;18.70;94.80;;;;;;5016364;28;20036;-72
2022/07/28 00:16:16;;;;;;;1999.90;999.90;;;18.70;94.90;;;;;;5016627;28;20535;-72
2022/07/28 00:18:41;;;;;;;1999.90;999.90;;;18.70;94.90;;;;;;5016237;28;20062;-72
2022/07/28 00:21:08;;;;;;;1999.90;999.90;;;18.70;94.80;;;;;;5016306;28;20085;-74
2022/07/28 00:23:33;;;;;;;1999.90;999.90;;;18.60;94.90;;;;;;5016217;28;20401;-74
2022/07/28 00:25:59;;;;;;;1999.90;999.90;;;18.60;95.00;;;;;;5016062;28;20378;-72
2022/07/28 00:28:25;;;;;;;1999.90;999.90;;;18.50;95.10;;;;;;5016197;28;20056;-73
2022/07/28 00:30:50;;;;;;;1999.90;999.90;;;18.40;95.10;;;;;;4997039;28;20034;-73
2022/07/28 00:33:16;;;;;;;1999.90;999.90;;;18.30;95.30;;;;;;4996598;28;20026;-74
2022/07/28 00:35:42;;;;;;;1999.90;999.90;;;18.30;95.40;;;;;;4996179;28;20026;-74
2022/07/28 00:38:07;;;;;;;1999.90;999.90;;;18.20;95.50;;;;;;4996615;28;20026;-74
2022/07/28 00:43:18;;;;;;;1999.90;999.90;;;18.00;95.70;;;;;;4996586;28;20033;-74
2022/07/28 00:45:44;;;;;;;1999.90;999.90;;;17.90;95.80;;;;;;4996273;28;20049;-74
2022/07/28 00:48:09;;;;;;;1999.90;999.90;;;17.90;96.00;;;;;;4994995;28;20493;-74
2022/07/28 00:50:38;;;;;;;1999.90;999.90;;;17.90;96.20;;;;;;4995806;28;20050;-73
2022/07/28 00:53:06;;;;;;;1999.90;999.90;;;17.80;96.30;;;;;;4996248;28;20029;-72
2022/07/28 00:55:31;;;;;;;1999.90;999.90;;;17.80;96.40;;;;;;4996134;28;20030;-74
2022/07/28 00:57:57;;;;;;;1999.90;999.90;;;17.80;96.40;;;;;;4996165;28;20026;-75
2022/07/28 01:00:23;;;;;;;1999.90;999.90;;;17.80;96.50;;;;;;4996067;28;20058;-75
2022/07/28 01:02:49;;;;;;;1999.90;999.90;;;17.80;96.40;;;;;;5006608;28;20026;-74
2022/07/28 01:05:15;;;;;;;1999.90;999.90;;;17.80;96.30;;;;;;5015495;28;20069;-75
2022/07/28 01:08:13;;;;;;;1999.90;999.90;;;17.80;96.50;;;;;;5015454;28;20057;-73
2022/07/28 01:10:49;;;;;;;1999.90;999.90;;;17.80;96.50;;;;;;5001633;28;20038;-75
2022/07/28 01:13:32;;;;;;;1999.90;999.90;;;17.80;96.60;;;;;;5014590;28;20052;-75
2022/07/28 01:16:01;;;;;;;1999.90;999.90;;;17.70;96.60;;;;;;5014899;28;20105;-73
2022/07/28 01:18:46;;;;;;;1999.90;999.90;;;17.60;96.80;;;;;;5015239;28;20030;-74
2022/07/28 01:21:14;;;;;;;1999.90;999.90;;;17.50;96.80;;;;;;5015114;28;20030;-74
2022/07/28 01:24:02;;;;;;;1999.90;999.90;;;17.50;97.00;;;;;;5015194;28;20026;-75
2022/07/28 01:27:06;;;;;;;1999.90;999.90;;;17.50;97.00;;;;;;5013492;28;20558;-75
2022/07/28 01:30:02;;;;;;;1999.90;999.90;;;17.50;97.10;;;;;;5007802;28;20621;-73
2022/07/28 01:32:37;;;;;;;1999.90;999.90;;;17.50;97.30;;;;;;5014965;28;20026;-74
2022/07/28 01:35:14;;;;;;;1999.90;999.90;;;17.50;97.20;;;;;;5014702;28;20022;-73
2022/07/28 01:37:44;;;;;;;1999.90;999.90;;;17.50;97.30;;;;;;5014898;28;20018;-74
2022/07/28 01:40:15;;;;;;;1999.90;999.90;;;17.50;97.20;;;;;;5014668;28;20538;-74
2022/07/28 01:42:45;;;;;;;1999.90;999.90;;;17.40;97.20;;;;;;5014402;28;20473;-74
2022/07/28 01:45:12;;;;;;;1999.90;999.90;;;17.40;97.40;;;;;;5014962;28;20026;-74
2022/07/28 01:47:39;;;;;;;1999.90;999.90;;;17.30;97.40;;;;;;5014986;28;20084;-75
2022/07/28 01:50:09;;;;;;;1999.90;999.90;;;17.20;97.60;;;;;;5014334;28;20046;-74
2022/07/28 01:52:36;;;;;;;1999.90;999.90;;;17.20;98.00;;;;;;5014659;28;20620;-74
2022/07/28 01:55:03;;;;;;;1999.90;999.90;;;17.00;98.30;;;;;;5014777;28;20497;-74
2022/07/28 01:57:31;;;;;;;1999.90;999.90;;;17.00;98.60;;;;;;5014305;28;20053;-74
2022/07/28 01:59:58;;;;;;;1999.90;999.90;;;16.90;98.60;;;;;;5014770;28;20017;-72
2022/07/28 02:02:26;;;;;;;1999.90;999.90;;;16.80;98.80;;;;;;5012154;28;20022;-74
2022/07/28 02:04:54;;;;;;;1999.90;999.90;;;16.80;99.00;;;;;;5014460;28;20068;-74
2022/07/28 02:07:22;;;;;;;1999.90;999.90;;;16.80;99.10;;;;;;5013112;28;20026;-74
2022/07/28 02:09:48;;;;;;;1999.90;999.90;;;16.80;99.20;;;;;;5014479;28;20032;-73
2022/07/28 02:12:17;;;;;;;1999.90;999.90;;;16.90;99.20;;;;;;5013888;28;20018;-72
2022/07/28 02:14:47;;;;;;;1999.90;999.90;;;16.90;99.10;;;;;;5014404;28;20071;-74
2022/07/28 02:17:16;;;;;;;1999.90;999.90;;;17.00;99.10;;;;;;5013900;28;20065;-74
2022/07/28 02:19:44;;;;;;;1999.90;999.90;;;17.00;99.00;;;;;;5014185;28;20056;-73
2022/07/28 02:22:11;;;;;;;1999.90;999.90;;;17.10;99.10;;;;;;5013919;28;20481;-74
2022/07/28 02:24:39;;;;;;;1999.90;999.90;;;17.20;99.20;;;;;;5014411;28;20441;-74
2022/07/28 02:27:17;;;;;;;1999.90;999.90;;;17.30;99.20;;;;;;5013794;28;20026;-74
2022/07/28 02:29:47;;;;;;;1999.90;999.90;;;17.30;99.10;;;;;;5014004;28;20026;-74
2022/07/28 02:32:23;;;;;;;1999.90;999.90;;;17.40;99.10;;;;;;5013878;28;20493;-72
2022/07/28 02:34:51;;;;;;;1999.90;999.90;;;17.30;99.20;;;;;;5013781;28;20029;-75
2022/07/28 02:37:18;;;;;;;1999.90;999.90;;;17.30;99.20;;;;;;5013779;28;20389;-74
2022/07/28 02:39:48;;;;;;;1999.90;999.90;;;17.30;99.10;;;;;;5014401;28;20038;-74
2022/07/28 02:42:17;;;;;;;1999.90;999.90;;;17.30;99.20;;;;;;5013549;28;20022;-74
2022/07/28 02:44:56;;;;;;;1999.90;999.90;;;17.40;99.20;;;;;;5013380;28;20056;-74
2022/07/28 02:47:25;;;;;;;1999.90;999.90;;;17.40;99.20;;;;;;5013600;28;20505;-74
2022/07/28 02:49:53;;;;;;;1999.90;999.90;;;17.40;99.20;;;;;;5013603;28;20041;-74
2022/07/28 02:52:22;;;;;;;1999.90;999.90;;;17.50;99.40;;;;;;5013536;28;20551;-72
2022/07/28 02:54:50;;;;;;;1999.90;999.90;;;17.50;99.20;;;;;;5013594;28;20049;-75
2022/07/28 02:57:17;;;;;;;1999.90;999.90;;;17.50;99.30;;;;;;5012039;28;20018;-74
2022/07/28 02:59:43;;;;;;;1999.90;999.90;;;17.50;99.40;;;;;;5013652;28;20144;-75
2022/07/28 03:02:10;;;;;;;1999.90;999.90;;;17.50;99.40;;;;;;5013193;28;20014;-74
2022/07/28 03:04:57;;;;;;;1999.90;999.90;;;17.60;99.60;;;;;;5013647;28;20104;-75
2022/07/28 03:07:33;;;;;;;1999.90;999.90;;;17.70;99.30;;;;;;5013450;28;20089;-74
2022/07/28 03:09:59;;;;;;;1999.90;999.90;;;17.80;99.10;;;;;;5013753;28;20014;-75
2022/07/28 03:12:25;;;;;;;1999.90;999.90;;;17.90;99.00;;;;;;5012963;28;20064;-74
2022/07/28 03:14:51;;;;;;;1999.90;999.90;;;18.00;99.00;;;;;;5013583;28;20030;-72
2022/07/28 03:17:18;;;;;;;1999.90;999.90;;;18.00;98.90;;;;;;5012521;28;20029;-72
2022/07/28 03:19:44;;;;;;;1999.90;999.90;;;18.00;98.90;;;;;;5013072;28;20389;-74
2022/07/28 03:22:10;;;;;;;1999.90;999.90;;;18.00;99.00;;;;;;5013120;28;20533;-75
2022/07/28 03:24:39;;;;;;;1999.90;999.90;;;18.00;98.90;;;;;;5013525;28;20026;-75
2022/07/28 03:27:26;;;;;;;1999.90;999.90;;;18.00;99.00;;;;;;5011610;28;20497;-72
2022/07/28 03:30:12;;;;;;;1999.90;999.90;;;18.00;99.30;;;;;;5006017;28;20033;-72
2022/07/28 03:32:45;;;;;;;1999.90;999.90;;;17.80;99.50;;;;;;4993895;28;20056;-73
2022/07/28 03:35:13;;;;;;;1999.90;999.90;;;17.70;99.80;;;;;;4993560;28;20022;-75
2022/07/28 03:38:07;;;;;;;1999.90;999.90;;;17.50;99.90;;;;;;4996209;28;20030;-74
2022/07/28 03:40:35;;;;;;;1999.90;999.90;;;17.40;99.90;;;;;;5012898;28;20049;-74
2022/07/28 03:43:05;;;;;;;1999.90;999.90;;;17.40;99.90;;;;;;5012508;28;20148;-73
2022/07/28 03:45:31;;;;;;;1999.90;999.90;;;17.50;99.90;;;;;;5011908;28;20033;-75
2022/07/28 03:47:57;;;;;;;1999.90;999.90;;;17.50;99.90;;;;;;5013054;28;20101;-75
2022/07/28 03:50:28;;;;;;;1999.90;999.90;;;17.60;99.90;;;;;;5012969;28;20129;-75
2022/07/28 03:52:55;;;;;;;1999.90;999.90;;;17.60;99.90;;;;;;5012968;28;20053;-73
2022/07/28 03:55:21;;;;;;;1999.90;999.90;;;17.50;99.90;;;;;;5012887;28;20025;-75
2022/07/28 03:57:47;;;;;;;1999.90;999.90;;;17.50;99.90;;;;;;5012913;28;20030;-74
2022/07/28 04:00:15;;;;;;;1999.90;999.90;;;17.50;99.90;;;;;;5012522;28;20057;-75
2022/07/28 04:02:45;;;;;;;1999.90;999.90;;;17.40;99.90;;;;;;5012958;28;20026;-75
2022/07/28 04:05:12;;;;;;;1999.90;999.90;;;17.50;99.90;;;;;;5012941;28;20026;-73
2022/07/28 04:07:41;;;;;;;1999.90;999.90;;;17.50;99.90;;;;;;5011639;28;20034;-75
2022/07/28 04:10:09;;;;;;;1999.90;999.90;;;17.50;99.90;;;;;;5012565;28;20029;-72
2022/07/28 04:12:48;;;;;;;1999.90;999.90;;;17.50;99.90;;;;;;5012621;28;20448;-75
2022/07/28 04:15:15;;;;;;;1999.90;999.90;;;17.50;99.90;;;;;;5012183;28;20018;-75
2022/07/28 04:17:41;;;;;;;1999.90;999.90;;;17.50;99.90;;;;;;5012800;28;20433;-75
2022/07/28 04:20:08;;;;;;;1999.90;999.90;;;17.50;99.90;;;;;;5012593;28;20022;-73
2022/07/28 04:22:34;;;;;;;1999.90;999.90;;;17.50;99.90;;;;;;5012546;28;20477;-73
2022/07/28 04:25:01;;;;;;;1999.90;999.90;;;17.50;99.90;;;;;;5012984;28;20032;-72
2022/07/28 04:27:27;;;;;;;1999.90;999.90;;;17.40;99.90;;;;;;5013429;28;20025;-72
2022/07/28 04:29:52;;;;;;;1999.90;999.90;;;17.40;99.90;;;;;;5009204;28;20042;-72
2022/07/28 04:32:18;;;;;;;1999.90;999.90;;;17.40;99.90;;;;;;4996592;28;20030;-74
2022/07/28 04:34:44;;;;;;;1999.90;999.90;;;17.40;99.90;;;;;;4996409;28;20050;-73
2022/07/28 04:37:09;;;;;;;1999.90;999.90;;;17.40;99.90;;;;;;4999237;28;20069;-73
2022/07/28 04:39:35;;;;;;;1999.90;999.90;;;17.40;99.90;;;;;;5016310;28;20040;-75
2022/07/28 04:42:01;;;;;;;1999.90;999.90;;;17.40;99.90;;;;;;5015589;28;20034;-73
2022/07/28 04:44:27;;;;;;;1999.90;999.90;;;17.40;99.90;;;;;;5015390;28;20440;-74
2022/07/28 04:46:52;;;;;;;1999.90;999.90;;;17.40;99.90;;;;;;5014402;28;20073;-73
2022/07/28 04:49:18;;;;;;;1999.90;999.90;;;17.30;99.90;;;;;;5014653;28;20033;-75
2022/07/28 04:51:48;;;;;;;1999.90;999.90;;;17.30;99.90;;;;;;5015831;28;20500;-75
2022/07/28 04:54:14;;;;;;;1999.90;999.90;;;17.30;99.90;;;;;;5015834;28;20444;-73
2022/07/28 04:56:40;;;;;;;1999.90;999.90;;;17.30;99.90;;;;;;5015430;28;20367;-75
2022/07/28 04:59:06;;;;;;;1999.90;999.90;;;17.30;99.90;;;;;;5015633;28;20101;-73
2022/07/28 05:01:31;;;;;;;1999.90;999.90;;;17.30;99.90;;;;;;5015730;28;20033;-75
2022/07/28 05:03:57;;;;;;;1999.90;999.90;;;17.30;99.90;;;;;;4996228;28;20061;-75
2022/07/28 05:06:23;;;;;;;1999.90;999.90;;;17.30;99.90;;;;;;4996096;28;20030;-75
2022/07/28 05:08:49;;;;;;;1999.90;999.90;;;17.30;99.90;;;;;;4995904;28;20027;-73
2022/07/28 05:11:15;;;;;;;1999.90;999.90;;;17.30;99.90;;;;;;4995569;28;20030;-72
2022/07/28 05:13:41;;;;;;;1999.90;999.90;;;17.30;99.90;;;;;;4995778;28;20033;-75
2022/07/28 05:16:07;;;;;;;1999.90;999.90;;;17.40;99.90;;;;;;4995733;28;20367;-72
2022/07/28 05:18:33;;;;;;;1999.90;999.90;;;17.40;99.90;;;;;;4995490;28;20033;-75
2022/07/28 05:20:59;;;;;;;1999.90;999.90;;;17.50;99.90;;;;;;4995490;28;20030;-73
2022/07/28 05:23:25;;;;;;;1999.90;999.90;;;17.50;99.90;;;;;;4995570;28;20121;-75
2022/07/28 05:25:51;;;;;;;1999.90;999.90;;;17.60;99.90;;;;;;4995194;28;20033;-73
2022/07/28 05:28:16;;;;;;;1999.90;999.90;;;17.60;99.90;;;;;;5008424;28;20092;-73
2022/07/28 05:30:42;;;;;;;1999.90;999.90;;;17.80;99.90;;;;;;5001544;28;20116;-75
2022/07/28 05:33:08;;;;;;;1999.90;999.90;;;17.80;99.90;;;;;;4995293;28;20397;-75
2022/07/28 05:35:33;;;;;;;1999.90;999.90;;;17.90;99.90;;;;;;4999424;28;20033;-75
2022/07/28 05:37:59;;;;;;;1999.90;999.90;;;18.00;99.90;;;;;;5009128;28;20363;-73
2022/07/28 05:40:26;;;;;;;1999.90;999.90;;;18.00;99.90;;;;;;4994900;28;20500;-73
2022/07/28 05:42:51;;;;;;;1999.90;999.90;;;18.00;99.90;;;;;;4993810;28;20026;-73
2022/07/28 05:45:17;;;;;;;1999.90;999.90;;;18.00;99.90;;;;;;4994567;28;20041;-75
2022/07/28 05:47:47;;;;;;;1999.90;999.90;;;18.00;99.90;;;;;;4995306;28;20061;-75
2022/07/28 05:50:17;;;;;;;1999.90;999.90;;;18.00;99.90;;;;;;4993638;28;20612;-73
2022/07/28 05:52:44;;;;;;;1999.90;999.90;;;18.10;99.90;;;;;;4994981;28;20113;-75
2022/07/28 05:55:10;;;;;;;1999.90;999.90;;;18.20;99.90;;;;;;4994868;28;20023;-73
2022/07/28 05:57:37;;;;;;;1999.90;999.90;;;18.20;99.90;;;;;;4994923;28;20022;-72
2022/07/28 06:00:08;;;;;;;1999.90;999.90;;;18.30;99.90;;;;;;4993535;28;20481;-76
2022/07/28 06:02:34;;;;;;;1999.90;999.90;;;18.30;99.90;;;;;;5002881;28;20099;-73
2022/07/28 06:05:00;;;;;;;1999.90;999.90;;;18.40;99.90;;;;;;5014135;28;20509;-73
2022/07/28 06:07:26;;;;;;;1999.90;999.90;;;18.40;99.90;;;;;;5013418;28;20057;-73
2022/07/28 06:09:51;;;;;;;1999.90;999.90;;;18.40;99.90;;;;;;5013149;28;20405;-73
2022/07/28 06:12:17;;;;;;;1999.90;999.90;;;18.50;99.90;;;;;;5012994;28;20405;-75
2022/07/28 06:14:42;;;;;;;1999.90;999.90;;;18.60;99.90;;;;;;5013997;28;20026;-75
2022/07/28 06:17:08;;;;;;;1999.90;999.90;;;18.60;99.90;;;;;;5013738;28;20022;-73
2022/07/28 06:19:34;;;;;;;1999.90;999.90;;;18.70;99.90;;;;;;5014069;28;20444;-76
2022/07/28 06:21:59;;;;;;;1999.90;999.90;;;18.70;99.90;;;;;;5012271;28;20025;-73
2022/07/28 06:24:25;;;;;;;1999.90;999.90;;;18.70;99.90;;;;;;5013860;28;20072;-76
2022/07/28 06:26:51;;;;;;;1999.90;999.90;;;18.70;99.90;;;;;;5013321;28;20072;-73
2022/07/28 06:29:17;;;;;;;1999.90;999.90;;;18.80;99.90;;;;;;5013478;28;20030;-73
2022/07/28 06:31:43;;;;;;;1999.90;999.90;;;18.90;99.90;;;;;;5013826;28;20044;-73
2022/07/28 06:34:10;;;;;;;1999.90;999.90;;;19.00;99.90;;;;;;5007086;28;20042;-73
2022/07/28 06:36:35;;;;;;;1999.90;999.90;;;19.20;99.90;;;;;;5012633;28;20485;-75
2022/07/28 06:39:01;;;;;;;1999.90;999.90;;;19.40;99.90;;;;;;5012450;28;20029;-75
2022/07/28 06:41:27;;;;;;;1999.90;999.90;;;19.40;99.90;;;;;;5011934;28;20026;-73
2022/07/28 06:43:53;;;;;;;1999.90;999.90;;;19.50;99.90;;;;;;5012592;28;20026;-73
2022/07/28 06:46:18;;;;;;;1999.90;999.90;;;19.50;99.90;;;;;;5012059;28;20026;-73
2022/07/28 06:48:44;;;;;;;1999.90;999.90;;;19.50;99.90;;;;;;5012656;28;20064;-75
2022/07/28 06:51:11;;;;;;;1999.90;999.90;;;19.40;99.90;;;;;;5012814;28;20038;-75
2022/07/28 06:53:37;;;;;;;1999.90;999.90;;;19.40;99.90;;;;;;5012598;28;20045;-76
2022/07/28 06:56:05;;;;;;;1999.90;999.90;;;19.40;99.90;;;;;;5011367;28;20080;-73
2022/07/28 06:58:31;;;;;;;1999.90;999.90;;;19.40;99.90;;;;;;5012846;28;20026;-75
2022/07/28 07:00:57;;;;;;;1999.90;999.90;;;19.60;99.90;;;;;;5012774;28;20029;-72
2022/07/28 07:03:22;;;;;;;1999.90;999.90;;;19.80;99.90;;;;;;5012862;28;20570;-72
2022/07/28 07:05:48;;;;;;;1999.90;999.90;;;20.00;99.90;;;;;;5011117;28;20393;-73
2022/07/28 07:08:14;;;;;;;1999.90;999.90;;;20.20;99.90;;;;;;5011869;28;20114;-76
2022/07/28 07:10:39;;;;;;;1999.90;999.90;;;20.30;99.90;;;;;;5007477;28;20026;-72
2022/07/28 07:13:05;;;;;;;1999.90;999.90;;;20.30;99.90;;;;;;5008571;28;20091;-76
2022/07/28 07:15:31;;;;;;;1999.90;999.90;;;20.30;99.90;;;;;;5011425;28;20598;-76
2022/07/28 07:17:56;;;;;;;1999.90;999.90;;;20.50;99.90;;;;;;5008926;28;20022;-76
2022/07/28 07:20:22;;;;;;;1999.90;999.90;;;20.60;99.90;;;;;;5007463;28;20033;-73
2022/07/28 07:22:48;;;;;;;1999.90;999.90;;;20.70;99.90;;;;;;5011440;28;20045;-73
2022/07/28 07:25:17;;;;;;;1999.90;999.90;;;20.90;99.90;;;;;;5011376;28;20055;-73
2022/07/28 07:27:44;;;;;;;1999.90;999.90;;;21.00;99.90;;;;;;5011648;28;20028;-76
2022/07/28 07:30:10;;;;;;;1999.90;999.90;;;21.10;99.90;;;;;;5012060;28;20115;-76
2022/07/28 07:32:37;;;;;;;1999.90;999.90;;;21.40;99.90;;;;;;5010758;28;20121;-75
2022/07/28 07:35:03;;;;;;;1999.90;999.90;;;21.50;99.90;;;;;;5011911;28;20366;-72
2022/07/28 07:37:31;;;;;;;1999.90;999.90;;;21.90;99.90;;;;;;5012102;28;20164;-72
2022/07/28 07:39:58;;;;;;;1999.90;999.90;;;22.10;99.90;;;;;;5012020;28;20079;-72
2022/07/28 07:42:23;;;;;;;1999.90;999.90;;;22.50;99.90;;;;;;5010436;28;20045;-75
2022/07/28 07:44:49;;;;;;;1999.90;999.90;;;22.70;99.90;;;;;;5010103;28;20030;-72
2022/07/28 07:47:14;;;;;;;1999.90;999.90;;;23.10;99.90;;;;;;5011867;28;20413;-75
2022/07/28 07:49:40;;;;;;;1999.90;999.90;;;22.90;99.90;;;;;;5009445;28;20097;-72
2022/07/28 07:52:06;;;;;;;1999.90;999.90;;;22.80;99.90;;;;;;5011938;28;20096;-72
2022/07/28 07:54:31;;;;;;;1999.90;999.90;;;23.10;99.90;;;;;;5010900;28;20564;-75
2022/07/28 07:56:57;;;;;;;1999.90;999.90;;;23.20;99.50;;;;;;5010903;28;20034;-75
2022/07/28 07:59:23;;;;;;;1999.90;999.90;;;23.50;99.70;;;;;;5011701;28;20032;-75
2022/07/28 08:01:53;;;;;;;1999.90;999.90;;;24.40;96.90;;;;;;5014209;28;20109;-72
2022/07/28 08:04:20;;;;;;;1999.90;999.90;;;25.80;94.10;;;;;;5015651;28;20029;-76
2022/07/28 08:06:47;;;;;;;1999.90;999.90;;;27.00;93.20;;;;;;5015372;28;20151;-76
2022/07/28 08:09:13;;;;;;;1999.90;999.90;;;28.40;91.70;;;;;;5015216;28;20026;-76
2022/07/28 08:11:38;;;;;;;1999.90;999.90;;;29.50;90.00;;;;;;4995565;28;20549;-72
2022/07/28 08:14:04;;;;;;;1999.90;999.90;;;29.50;89.40;;;;;;4995811;28;20394;-72
2022/07/28 08:16:29;;;;;;;1999.90;999.90;;;29.70;86.40;;;;;;4996128;28;20075;-71
2022/07/28 08:18:57;;;;;;;1999.90;999.90;;;29.80;86.80;;;;;;5007504;28;20116;-76
2022/07/28 08:21:24;;;;;;;1999.90;999.90;;;30.60;86.20;;;;;;5015689;28;20544;-76
2022/07/28 08:23:50;;;;;;;1999.90;999.90;;;30.70;85.90;;;;;;5014308;28;20401;-76
2022/07/28 08:26:16;;;;;;;1999.90;999.90;;;30.60;84.70;;;;;;5015137;28;20053;-77
2022/07/28 08:28:41;;;;;;;1999.90;999.90;;;30.90;84.90;;;;;;5013490;28;20513;-72
2022/07/28 08:31:07;;;;;;;1999.90;999.90;;;30.80;84.90;;;;;;5015472;28;20021;-73
2022/07/28 08:33:33;;;;;;;1999.90;999.90;;;30.70;85.50;;;;;;5015066;28;20030;-76
2022/07/28 08:35:59;;;;;;;1999.90;999.90;;;31.20;86.20;;;;;;5015480;28;20528;-76
2022/07/28 08:38:25;;;;;;;1999.90;999.90;;;29.90;88.00;;;;;;5015729;28;20072;-76
2022/07/28 08:40:55;;;;;;;1999.90;999.90;;;29.00;90.30;;;;;;5013509;28;20041;-72
2022/07/28 08:43:34;;;;;;;1999.90;999.90;;;28.60;90.40;;;;;;5013296;28;20030;-72
2022/07/28 08:46:01;;;;;;;1999.90;999.90;;;29.70;90.60;;;;;;5012353;28;20520;-76
2022/07/28 08:48:30;;;;;;;1999.90;999.90;;;30.70;88.20;;;;;;5014035;28;20034;-76
2022/07/28 08:51:01;;;;;;;1999.90;999.90;;;30.80;88.80;;;;;;5010072;28;20068;-72
2022/07/28 08:53:29;;;;;;;1999.90;999.90;;;31.90;84.30;;;;;;5013770;28;20500;-76
2022/07/28 08:56:06;;;;;;;1999.90;999.90;;;31.90;85.50;;;;;;5013989;28;20030;-72
2022/07/28 08:58:33;;;;;;;1999.90;999.90;;;32.90;83.40;;;;;;5013111;28;20485;-72
2022/07/28 09:00:59;;;;;;;1999.90;999.90;;;32.70;83.00;;;;;;5011345;28;20504;-72
2022/07/28 09:03:27;;;;;;;1999.90;999.90;;;33.10;83.10;;;;;;5014206;28;20030;-73
2022/07/28 09:05:53;;;;;;;1999.90;999.90;;;33.00;83.20;;;;;;5013857;28;20029;-73
2022/07/28 09:08:19;;;;;;;1999.90;999.90;;;33.30;81.60;;;;;;5013492;28;20038;-72
2022/07/28 09:10:48;;;;;;;1999.90;999.90;;;33.10;82.00;;;;;;5009844;28;20073;-76
2022/07/28 09:13:15;;;;;;;1999.90;999.90;;;33.30;81.20;;;;;;5009555;28;20038;-76
2022/07/28 09:15:43;;;;;;;1999.90;999.90;;;33.10;81.30;;;;;;5013393;28;20033;-76
2022/07/28 09:18:09;;;;;;;1999.90;999.90;;;33.60;80.90;;;;;;5013206;28;20030;-76
2022/07/28 09:20:35;;;;;;;1999.90;999.90;;;34.50;80.60;;;;;;5013853;28;20425;-72
2022/07/28 09:23:03;;;;;;;1999.90;999.90;;;32.80;81.80;;;;;;5013189;28;20038;-76
2022/07/28 09:25:29;;;;;;;1999.90;999.90;;;31.50;85.30;;;;;;5012586;28;20021;-72
2022/07/28 09:28:05;;;;;;;1999.90;999.90;;;29.90;87.50;;;;;;5013577;28;20038;-76
2022/07/28 09:30:34;;;;;;;1999.90;999.90;;;31.20;85.50;;;;;;5013136;28;20029;-72
2022/07/28 09:33:18;;;;;;;1999.90;999.90;;;32.70;82.60;;;;;;5012086;28;20034;-72
2022/07/28 09:35:52;;;;;;;1999.90;999.90;;;32.40;83.50;;;;;;5012181;28;20026;-72
2022/07/28 09:38:20;;;;;;;1999.90;999.90;;;31.90;84.40;;;;;;5010234;28;20053;-72
2022/07/28 09:41:05;;;;;;;1999.90;999.90;;;32.50;82.50;;;;;;5013342;28;20496;-72
2022/07/28 09:43:35;;;;;;;1999.90;999.90;;;32.00;82.80;;;;;;5013805;28;20030;-76
2022/07/28 09:46:15;;;;;;;1999.90;999.90;;;31.30;83.80;;;;;;5012784;28;20564;-72
2022/07/28 09:48:49;;;;;;;1999.90;999.90;;;29.80;87.30;;;;;;5013386;28;20053;-72
2022/07/28 09:51:41;;;;;;;1999.90;999.90;;;30.60;86.10;;;;;;5011900;28;20046;-76
2022/07/28 09:54:11;;;;;;;1999.90;999.90;;;29.90;87.30;;;;;;5006643;28;20056;-72
2022/07/28 09:56:39;;;;;;;1999.90;999.90;;;29.00;89.90;;;;;;5002850;28;20057;-76
2022/07/28 09:59:06;;;;;;;1999.90;999.90;;;28.30;90.50;;;;;;5013227;28;20104;-72
2022/07/28 10:01:32;;;;;;;1999.90;999.90;;;28.60;90.30;;;;;;5012240;28;20392;-72
2022/07/28 10:04:00;;;;;;;1999.90;999.90;;;30.70;87.40;;;;;;5013256;28;20113;-76
2022/07/28 10:06:33;;;;;;;1999.90;999.90;;;31.70;85.30;;;;;;5013033;28;20018;-76
2022/07/28 10:09:01;;;;;;;1999.90;999.90;;;32.10;84.30;;;;;;5012064;28;20041;-77
2022/07/28 10:11:28;;;;;;;1999.90;999.90;;;32.80;82.90;;;;;;5008343;28;20112;-72
2022/07/28 10:14:04;;;;;;;1999.90;999.90;;;31.90;83.10;;;;;;5011301;28;20030;-72
2022/07/28 10:16:35;;;;;;;1999.90;999.90;;;31.90;84.00;;;;;;5012642;28;20068;-76
2022/07/28 10:19:04;;;;;;;1999.90;999.90;;;31.40;84.30;;;;;;5012500;28;20405;-76
2022/07/28 10:21:37;;;;;;;1999.90;999.90;;;31.70;84.00;;;;;;5012970;28;20057;-76
2022/07/28 10:24:08;;;;;;;1999.90;999.90;;;31.60;84.20;;;;;;5009627;28;20214;-72
2022/07/28 10:26:41;;;;;;;1999.90;999.90;;;31.80;84.70;;;;;;5003328;28;20030;-72
2022/07/28 10:29:14;;;;;;;1999.90;999.90;;;31.10;85.30;;;;;;5010123;28;20021;-76
2022/07/28 10:31:54;;;;;;;1999.90;999.90;;;31.50;84.60;;;;;;5009722;28;20443;-72
2022/07/28 10:34:29;;;;;;;1999.90;999.90;;;31.80;84.40;;;;;;5011639;28;20378;-72
2022/07/28 10:36:55;;;;;;;1999.90;999.90;;;30.90;85.00;;;;;;5011535;28;20087;-72
2022/07/28 10:39:24;;;;;;;1999.90;999.90;;;31.20;85.10;;;;;;5012951;28;20494;-73
2022/07/28 10:41:50;;;;;;;1999.90;999.90;;;31.50;85.10;;;;;;5012196;28;20489;-76
2022/07/28 10:44:18;;;;;;;1999.90;999.90;;;31.30;84.90;;;;;;5012174;28;20030;-76
2022/07/28 10:46:44;;;;;;;1999.90;999.90;;;31.20;84.20;;;;;;5012349;28;20392;-76
2022/07/28 10:49:12;;;;;;;1999.90;999.90;;;31.30;84.50;;;;;;5011728;28;20033;-77
2022/07/28 10:51:47;;;;;;;1999.90;999.90;;;31.80;84.10;;;;;;5012358;28;20084;-72
2022/07/28 10:54:28;;;;;;;1999.90;999.90;;;30.80;84.60;;;;;;5011853;28;20404;-76
2022/07/28 10:57:01;;;;;;;1999.90;999.90;;;31.00;84.80;;;;;;5012236;28;20029;-77
2022/07/28 10:59:54;;;;;;;1999.90;999.90;;;31.00;85.00;;;;;;5012706;28;20022;-76
2022/07/28 11:02:44;;;;;;;1999.90;999.90;;;30.50;86.60;;;;;;5012088;28;20072;-72
2022/07/28 11:05:34;;;;;;;1999.90;999.90;;;30.40;85.90;;;;;;5010847;28;20117;-76
2022/07/28 11:08:08;;;;;;;1999.90;999.90;;;30.50;85.40;;;;;;5011361;28;20026;-72
2022/07/28 11:10:48;;;;;;;1999.90;999.90;;;30.20;86.00;;;;;;5010850;28;20033;-76
2022/07/28 11:13:26;;;;;;;1999.90;999.90;;;30.90;85.40;;;;;;5006514;28;20022;-72
2022/07/28 11:15:52;;;;;;;1999.90;999.90;;;30.60;86.40;;;;;;5011742;28;20030;-72
2022/07/28 11:18:18;;;;;;;1999.90;999.90;;;30.00;87.40;;;;;;5011719;28;20028;-72
2022/07/28 11:20:55;;;;;;;1999.90;999.90;;;30.30;87.70;;;;;;5011729;28;20036;-72
2022/07/28 11:23:39;;;;;;;1999.90;999.90;;;31.40;86.40;;;;;;5011920;28;20022;-76
2022/07/28 11:26:23;;;;;;;1999.90;999.90;;;31.00;86.20;;;;;;5011374;28;20030;-72
2022/07/28 11:29:04;;;;;;;1999.90;999.90;;;29.20;88.10;;;;;;5011145;28;20041;-76
2022/07/28 11:31:45;;;;;;;1999.90;999.90;;;29.00;89.60;;;;;;5006635;28;20032;-72
2022/07/28 11:34:16;;;;;;;1999.90;999.90;;;28.90;90.00;;;;;;5011760;28;20029;-76
2022/07/28 11:37:01;;;;;;;1999.90;999.90;;;28.70;90.30;;;;;;5018397;28;20049;-76
2022/07/28 11:39:32;;;;;;;1999.90;999.90;;;28.50;90.00;;;;;;5018945;28;20436;-75
2022/07/28 11:41:58;;;;;;;1999.90;999.90;;;27.90;90.80;;;;;;5018145;28;20033;-75
2022/07/28 11:44:29;;;;;;;1999.90;999.90;;;27.50;91.50;;;;;;5018122;28;20033;-72
2022/07/28 11:47:17;;;;;;;1999.90;999.90;;;28.10;91.50;;;;;;5018107;28;20401;-76
2022/07/28 11:49:45;;;;;;;1999.90;999.90;;;28.20;91.10;;;;;;5017846;28;20048;-75
2022/07/28 11:52:14;;;;;;;1999.90;999.90;;;27.80;91.50;;;;;;5014423;28;20021;-76
2022/07/28 11:54:40;;;;;;;1999.90;999.90;;;27.00;92.20;;;;;;5016885;28;20092;-72
2022/07/28 11:57:10;;;;;;;1999.90;999.90;;;26.60;92.70;;;;;;5016692;28;20013;-75
2022/07/28 11:59:48;;;;;;;1999.90;999.90;;;27.00;92.40;;;;;;5017616;28;20435;-76
2022/07/28 12:02:22;;;;;;;1999.90;999.90;;;27.60;92.20;;;;;;5018125;28;20018;-76
2022/07/28 12:04:55;;;;;;;1999.90;999.90;;;27.50;91.60;;;;;;5016396;28;20025;-73
2022/07/28 12:07:30;;;;;;;1999.90;999.90;;;27.40;92.50;;;;;;5014545;28;20020;-76
2022/07/28 12:09:56;;;;;;;1999.90;999.90;;;27.20;92.20;;;;;;5014462;28;20497;-73
2022/07/28 12:12:21;;;;;;;1999.90;999.90;;;27.30;92.40;;;;;;5016800;28;20097;-76